Terminal Aerodrome Forecast
Issued by NWS Chicago, IL

Home | Current Version | Previous Version | Graphics & Text | Print | Product List | Glossary On
Versions: 1 2 3 4 5 6 7 8 9 10 11 12 13 14 15 16 17 18 19 20 21 22 23 24 25
502
FTUS43 KLOT 032323
TAFRFD
TAF
KRFD 032323Z 0400/0424 29012G18KT P6SM VCSH OVC018
     FM040200 29011G16KT P6SM OVC015
     FM041300 28011KT P6SM SCT018 SCT120
     FM041900 24008KT P6SM SCT050 BKN120=

USA.gov is the U.S. government's official web portal to all federal, state and local government web resources and services.